Millenbeck, Virginia
Current Conditions -  °F | °C
As of 11:55 AM on Thursday 23 Oct 2014 (Local Time) from KW75 Reporting Station
Broken Clouds Broken Clouds  
Wind Chill: 59°   Ceiling: 4100
Heat Index: 59°   Visibility: 10mi
Dew Point: 46°   Wind: 14mph
Humidity: 64%   Direction: 310°NW
Pressure: 29.87"   Gusts: 22mph
Location:  37.7649°N, 76.5055°W
Report Text: KW75 231555Z AUTO 31012G19KT 280V340 10SM SCT029 BKN041 15/08 A2987 RMK AO1 T01480080
Loading
Personal Weather Stations






























Interactive Weather Map
Tropical Storm Tracking
New forecast layout! Learn more

10-Day Weather Forecast

Advertisements
Track Severe Weather on mobile